Terminal Aerodrome Forecast
Issued by NWS

Home | Current Version | Previous Version | Text Only | Print | Product List | Glossary On
Versions: 1 2 3 4 5 6 7 8 9 10 11 12 13 14 15 16 17 18
697
FTUS45 KMSO 131738
TAFSMN
TAF
KSMN 131738Z 1318/1418 33011KT P6SM VCSH SCT040 BKN050
     FM140100 32006KT P6SM BKN060
     FM140900 VRB04KT P6SM VCSH BKN030 OVC050
     FM141200 VRB03KT 4SM -SN BKN020 OVC040
      AMD LTD TO CLD VIS AND WIND=

USA.gov is the U.S. government's official web portal to all federal, state and local government web resources and services.